Time;durP1;ratioP1;P1;durP2;ratioP2;P2;SDS_P1;SDS_P2;PMS_P1;PMS_P2;Temp;Humidity;BMP_temperature;BMP_pressure;BME280_temperature;BME280_humidity;BME280_pressure;Samples;Min_cycle;Max_cycle;Signal;HPM_P1;HPM_P2
2022/01/27 05:00:16;;;;;;;50.50;19.70;;;-0.70;99.90;;;;;;6080078;23;20379;31
2022/01/27 05:02:47;;;;;;;47.63;19.40;;;-0.80;99.90;;;;;;4913812;29;20493;-78
2022/01/27 05:05:14;;;;;;;57.30;21.10;;;-0.80;99.90;;;;;;4915693;29;21038;-78
2022/01/27 05:07:41;;;;;;;57.13;21.03;;;-0.80;99.90;;;;;;4915916;29;20460;-78
2022/01/27 05:10:13;;;;;;;55.70;19.80;;;-0.80;99.90;;;;;;4915502;29;21033;-79
2022/01/27 05:12:45;;;;;;;57.57;22.17;;;-0.80;99.90;;;;;;4915523;29;20585;-78
2022/01/27 05:15:13;;;;;;;48.70;20.77;;;-0.80;99.90;;;;;;4950877;23;21751;-74
2022/01/27 05:17:41;;;;;;;45.47;18.37;;;-0.70;99.90;;;;;;4973196;28;20844;-72
2022/01/27 05:20:09;;;;;;;57.50;21.83;;;-0.70;99.90;;;;;;4972724;28;20543;-73
2022/01/27 05:22:36;;;;;;;54.87;18.70;;;-0.70;99.90;;;;;;4972988;28;20531;-72
2022/01/27 05:25:03;;;;;;;64.83;20.80;;;-0.70;99.90;;;;;;4972925;28;20504;-75
2022/01/27 05:27:30;;;;;;;64.13;20.53;;;-0.70;99.90;;;;;;4972707;28;20487;-73
2022/01/27 05:29:57;;;;;;;58.40;21.77;;;-0.70;99.90;;;;;;4972700;28;20491;-72
2022/01/27 05:32:24;;;;;;;53.47;19.47;;;-0.70;99.90;;;;;;4972665;28;20571;-73
2022/01/27 05:34:52;;;;;;;68.87;21.83;;;-0.70;99.90;;;;;;4972958;28;20460;-73
2022/01/27 05:37:19;;;;;;;51.97;19.90;;;-0.70;99.90;;;;;;4972680;28;20859;-75
2022/01/27 05:39:46;;;;;;;71.30;21.50;;;-0.70;99.90;;;;;;4972612;28;20464;-73
2022/01/27 05:42:13;;;;;;;60.57;19.67;;;-0.80;99.90;;;;;;4972715;28;20460;-73
2022/01/27 05:44:40;;;;;;;57.23;21.60;;;-0.80;99.90;;;;;;4972920;28;20463;-73
2022/01/27 05:47:07;;;;;;;61.30;22.20;;;-0.70;99.90;;;;;;4972925;28;20474;-72
2022/01/27 05:49:34;;;;;;;59.20;20.97;;;-0.70;99.90;;;;;;4972619;28;20456;-72
2022/01/27 05:52:02;;;;;;;67.87;21.63;;;-0.70;99.90;;;;;;4972548;28;20531;-72
2022/01/27 05:54:29;;;;;;;60.37;20.43;;;-0.70;99.90;;;;;;4972504;28;20547;-73
2022/01/27 05:56:56;;;;;;;71.77;21.60;;;-0.70;99.90;;;;;;4972784;28;20476;-66
2022/01/27 05:59:23;;;;;;;64.93;20.50;;;-0.80;99.90;;;;;;4967717;28;20472;-65
2022/01/27 06:01:50;;;;;;;65.90;23.60;;;-0.70;99.90;;;;;;4975019;28;21008;-66
2022/01/27 06:04:16;;;;;;;62.70;22.27;;;-0.70;99.90;;;;;;4975970;28;20911;-73
2022/01/27 06:06:44;;;;;;;81.53;24.13;;;-0.70;99.90;;;;;;4975842;28;20481;-73
2022/01/27 06:09:13;;;;;;;59.13;21.90;;;-0.70;99.90;;;;;;4975061;28;20478;-73
2022/01/27 06:11:40;;;;;;;85.80;24.00;;;-0.70;99.90;;;;;;4975462;28;21027;-73
2022/01/27 06:14:07;;;;;;;71.87;21.13;;;-0.60;99.90;;;;;;4976127;28;20458;-74
2022/01/27 06:16:34;;;;;;;68.73;23.20;;;-0.60;99.90;;;;;;4975963;28;20571;-72
2022/01/27 06:19:02;;;;;;;73.03;22.27;;;-0.60;99.90;;;;;;4975874;28;20454;-75
2022/01/27 06:21:30;;;;;;;85.47;23.90;;;-0.60;99.90;;;;;;4975926;28;20941;-74
2022/01/27 06:23:57;;;;;;;69.37;22.40;;;-0.50;99.90;;;;;;4975959;28;20465;-74
2022/01/27 06:26:27;;;;;;;57.80;20.63;;;-0.50;99.90;;;;;;4974982;28;20555;-73
2022/01/27 06:28:54;;;;;;;69.07;20.23;;;-0.50;99.90;;;;;;4974867;28;20444;-73
2022/01/27 06:31:21;;;;;;;71.00;22.97;;;-0.60;99.90;;;;;;4974617;28;21208;-72
2022/01/27 06:33:48;;;;;;;73.50;22.70;;;-0.60;99.90;;;;;;4974669;28;20589;-74
2022/01/27 06:36:15;;;;;;;59.00;22.90;;;-0.60;99.90;;;;;;4974144;28;20536;-73
2022/01/27 06:38:42;;;;;;;80.37;24.53;;;-0.60;99.90;;;;;;4974256;28;20458;-73
2022/01/27 06:41:10;;;;;;;76.37;22.60;;;-0.60;99.90;;;;;;4974262;28;20454;-73
2022/01/27 06:43:39;;;;;;;78.30;25.83;;;-0.70;99.90;;;;;;4974533;28;20898;-73
2022/01/27 06:46:06;;;;;;;73.00;22.50;;;-0.80;99.90;;;;;;4974175;28;20484;-73
2022/01/27 06:48:33;;;;;;;75.23;23.43;;;-0.80;99.90;;;;;;4974292;28;20458;-73
2022/01/27 06:51:03;;;;;;;86.13;23.80;;;-0.80;99.90;;;;;;4974912;28;20487;-72
2022/01/27 06:53:30;;;;;;;76.93;27.80;;;-0.80;99.90;;;;;;4975291;28;20909;-72
2022/01/27 06:55:57;;;;;;;92.27;30.10;;;-0.80;99.90;;;;;;4975351;28;20506;-73
2022/01/27 06:58:24;;;;;;;78.13;25.97;;;-0.80;99.90;;;;;;4974836;28;20891;-73
2022/01/27 07:00:53;;;;;;;99.20;28.40;;;-0.80;99.90;;;;;;4975372;28;20879;-72
2022/01/27 07:03:20;;;;;;;85.50;27.60;;;-0.80;99.90;;;;;;4974921;28;20444;-73
2022/01/27 07:05:47;;;;;;;85.67;25.30;;;-0.80;99.90;;;;;;4974069;28;20555;-73
2022/01/27 07:08:13;;;;;;;73.17;22.83;;;-0.80;99.90;;;;;;4974311;28;20538;-73
2022/01/27 07:10:40;;;;;;;88.43;25.50;;;-0.80;99.90;;;;;;4972836;28;20462;-73
2022/01/27 07:13:07;;;;;;;68.27;23.10;;;-0.90;99.90;;;;;;4974098;28;20500;-73
2022/01/27 07:15:34;;;;;;;73.10;24.00;;;-0.90;99.90;;;;;;4973943;28;20571;-73
2022/01/27 07:18:02;;;;;;;80.40;24.53;;;-0.90;99.90;;;;;;4973910;28;20960;-73
2022/01/27 07:20:29;;;;;;;90.30;26.67;;;-0.90;99.90;;;;;;4973788;28;21042;-73
2022/01/27 07:22:56;;;;;;;89.43;26.57;;;-0.90;99.90;;;;;;4974665;28;20809;-72
2022/01/27 07:25:23;;;;;;;89.07;26.87;;;-0.90;99.90;;;;;;4974785;28;20504;-66
2022/01/27 07:27:50;;;;;;;75.97;25.20;;;-0.90;99.90;;;;;;4974222;28;20467;-65
2022/01/27 07:30:17;;;;;;;93.63;27.13;;;-0.90;99.90;;;;;;4974277;28;20531;-65
2022/01/27 07:32:44;;;;;;;74.93;24.63;;;-0.80;99.90;;;;;;4974285;28;20502;-65
2022/01/27 07:35:12;;;;;;;61.87;21.20;;;-0.80;99.90;;;;;;4974632;28;20554;-65
2022/01/27 07:37:41;;;;;;;78.60;25.27;;;-0.90;99.90;;;;;;4974545;28;20490;-73
2022/01/27 07:40:09;;;;;;;79.03;24.80;;;-0.90;99.90;;;;;;4974429;28;20464;-73
2022/01/27 07:42:37;;;;;;;76.43;25.17;;;-1.00;99.90;;;;;;4974427;28;20452;-73
2022/01/27 07:45:04;;;;;;;61.90;20.90;;;-1.00;99.90;;;;;;4974245;28;20484;-73
2022/01/27 07:47:31;;;;;;;68.00;22.37;;;-1.00;99.90;;;;;;4974417;28;20507;-73
2022/01/27 07:49:58;;;;;;;65.30;21.90;;;-1.10;99.90;;;;;;4974140;28;20452;-73
2022/01/27 07:52:26;;;;;;;68.60;22.90;;;-1.00;99.90;;;;;;4973375;28;20488;-73
2022/01/27 07:54:53;;;;;;;63.90;21.70;;;-1.00;99.90;;;;;;4972093;28;21003;-73
2022/01/27 07:57:20;;;;;;;66.03;21.70;;;-1.10;99.90;;;;;;4971729;28;20517;-73
2022/01/27 07:59:47;;;;;;;62.93;20.60;;;-1.10;99.90;;;;;;4971605;28;20574;-74
2022/01/27 08:02:13;;;;;;;60.73;22.13;;;-1.10;99.90;;;;;;4972605;28;20460;-72
2022/01/27 08:04:41;;;;;;;62.03;16.93;;;-1.10;99.90;;;;;;4972606;28;20456;-74
2022/01/27 08:07:08;;;;;;;57.87;20.03;;;-1.10;99.90;;;;;;4973360;28;20928;-74
2022/01/27 08:09:36;;;;;;;61.47;18.73;;;-1.10;99.90;;;;;;4973795;28;20510;-74
2022/01/27 08:12:04;;;;;;;55.83;18.70;;;-1.10;99.90;;;;;;4973929;28;20526;-73
2022/01/27 08:14:31;;;;;;;57.27;19.00;;;-1.20;99.90;;;;;;4974094;28;20489;-74
2022/01/27 08:16:58;;;;;;;55.47;17.67;;;-1.20;99.90;;;;;;4973031;28;20515;-73
2022/01/27 08:19:25;;;;;;;57.57;19.60;;;-1.20;99.90;;;;;;4972712;28;20534;-73
2022/01/27 08:21:51;;;;;;;53.33;18.17;;;-1.30;99.90;;;;;;4972461;28;20462;-74
2022/01/27 08:24:18;;;;;;;46.17;16.20;;;-1.30;99.90;;;;;;4972500;28;20444;-74
2022/01/27 08:26:48;;;;;;;43.90;17.60;;;-1.30;99.90;;;;;;4972450;28;20475;-73
2022/01/27 08:29:19;;;;;;;44.90;18.30;;;-1.30;99.90;;;;;;4972586;28;20491;-73
2022/01/27 08:31:58;;;;;;;47.43;17.67;;;-1.20;99.90;;;;;;4973217;28;20466;-73
2022/01/27 08:34:32;;;;;;;47.37;16.90;;;-1.30;99.90;;;;;;4972011;28;20475;-72
2022/01/27 08:37:00;;;;;;;48.63;17.17;;;-1.30;99.90;;;;;;4969824;28;20990;-73
2022/01/27 08:39:28;;;;;;;53.17;18.17;;;-1.30;99.90;;;;;;4971930;28;20908;-73
2022/01/27 08:41:56;;;;;;;50.87;17.40;;;-1.30;99.90;;;;;;4972497;28;20452;-73
2022/01/27 08:44:24;;;;;;;48.27;18.57;;;-1.30;99.90;;;;;;4972635;28;20451;-73
2022/01/27 08:46:51;;;;;;;57.57;17.63;;;-1.30;99.90;;;;;;4972650;28;20475;-74
2022/01/27 08:49:22;;;;;;;43.93;16.30;;;-1.30;99.90;;;;;;4972333;28;20968;-74
2022/01/27 08:51:48;;;;;;;44.63;17.07;;;-1.30;99.90;;;;;;4972858;28;20443;-73
2022/01/27 08:54:15;;;;;;;38.23;14.83;;;-1.30;99.90;;;;;;4972566;28;20502;-73
2022/01/27 08:56:44;;;;;;;42.83;16.77;;;-1.20;99.90;;;;;;4972556;28;20480;-74
2022/01/27 08:59:12;;;;;;;41.73;16.17;;;-1.20;99.90;;;;;;4972600;28;20539;-74
2022/01/27 09:01:40;;;;;;;42.13;15.70;;;-1.20;99.90;;;;;;4972338;28;21026;-73
2022/01/27 09:04:08;;;;;;;49.00;18.23;;;-1.20;99.90;;;;;;4972169;28;20448;-74
2022/01/27 09:06:36;;;;;;;43.63;13.77;;;-1.20;99.90;;;;;;4972310;28;20500;-73
2022/01/27 09:09:03;;;;;;;41.77;15.60;;;-1.20;99.90;;;;;;4972090;28;20452;-74
2022/01/27 09:11:31;;;;;;;35.67;13.97;;;-1.20;99.90;;;;;;4972461;28;20487;-73
2022/01/27 09:13:59;;;;;;;37.80;14.37;;;-1.20;99.90;;;;;;4972220;28;20499;-73
2022/01/27 09:16:28;;;;;;;35.47;14.57;;;-1.20;99.90;;;;;;4935492;28;1086536;-73
2022/01/27 09:18:56;;;;;;;37.20;14.90;;;-1.10;99.90;;;;;;4973127;28;20212;-74
2022/01/27 09:21:26;;;;;;;49.77;17.73;;;-1.10;99.90;;;;;;4973100;28;20815;-73
2022/01/27 09:23:54;;;;;;;40.83;15.93;;;-1.10;99.90;;;;;;4972347;28;20480;-74
2022/01/27 09:26:41;;;;;;;38.60;15.60;;;-1.10;99.90;;;;;;4973080;28;20845;-73
2022/01/27 09:29:09;;;;;;;43.83;17.70;;;-1.00;99.90;;;;;;4972575;28;20448;-73
2022/01/27 09:31:37;;;;;;;42.63;17.60;;;-1.00;99.90;;;;;;4973041;28;20476;-73
2022/01/27 09:34:04;;;;;;;51.07;18.53;;;-1.00;99.90;;;;;;4974488;28;20928;-73
2022/01/27 09:36:31;;;;;;;56.33;21.20;;;-0.90;99.90;;;;;;4976761;28;20476;-73
2022/01/27 09:38:58;;;;;;;58.60;19.83;;;-0.90;99.90;;;;;;4976513;28;20535;-73
2022/01/27 09:41:28;;;;;;;62.83;21.73;;;-0.80;99.90;;;;;;4976788;28;20476;-73
2022/01/27 09:43:55;;;;;;;63.23;21.33;;;-0.80;99.90;;;;;;4976539;28;20940;-73
2022/01/27 09:46:24;;;;;;;69.03;21.70;;;-0.80;99.90;;;;;;4976295;28;20925;-75
2022/01/27 09:48:53;;;;;;;57.50;20.97;;;-0.80;99.90;;;;;;4975778;28;20956;-73
2022/01/27 09:51:27;;;;;;;60.80;20.70;;;-0.70;99.90;;;;;;4976441;28;20530;-73
2022/01/27 09:53:57;;;;;;;66.23;21.00;;;-0.70;99.90;;;;;;4977029;28;20862;-73
2022/01/27 09:56:25;;;;;;;70.97;21.37;;;-0.80;99.90;;;;;;4976099;28;20582;-73
2022/01/27 09:58:52;;;;;;;61.50;20.17;;;-0.70;99.90;;;;;;4976494;28;20522;-72
2022/01/27 10:01:19;;;;;;;59.10;21.03;;;-0.70;99.90;;;;;;4976665;28;20467;-73
2022/01/27 10:03:55;;;;;;;55.90;19.97;;;-0.70;99.90;;;;;;4975930;28;20538;-73
2022/01/27 10:06:26;;;;;;;59.33;19.90;;;-0.70;99.90;;;;;;4976595;28;20507;-73
2022/01/27 10:09:12;;;;;;;55.47;19.10;;;-0.70;99.90;;;;;;4975943;28;20835;-73
2022/01/27 10:11:39;;;;;;;53.13;19.17;;;-0.60;99.90;;;;;;4976557;28;20556;-74
2022/01/27 10:14:24;;;;;;;50.03;19.60;;;-0.60;99.90;;;;;;4976452;28;20527;-74
2022/01/27 10:16:54;;;;;;;45.53;18.33;;;-0.50;99.90;;;;;;4976320;28;20880;-73
2022/01/27 10:19:25;;;;;;;53.23;20.93;;;-0.50;99.90;;;;;;4975697;28;20518;-74
2022/01/27 10:22:00;;;;;;;46.13;17.87;;;-0.40;99.90;;;;;;4976154;28;20468;-73
2022/01/27 10:24:29;;;;;;;45.87;18.23;;;-0.30;99.90;;;;;;4975865;28;20457;-75
2022/01/27 10:27:22;;;;;;;59.53;19.50;;;-0.20;99.90;;;;;;4976012;28;20479;-73
2022/01/27 10:32:39;;;;;;;42.80;17.60;;;-0.10;99.90;;;;;;4963658;28;20489;-74
2022/01/27 10:35:09;;;;;;;44.50;17.27;;;0.00;99.90;;;;;;4975526;28;20495;-74
2022/01/27 10:37:58;;;;;;;49.97;17.60;;;0.00;99.90;;;;;;4975484;28;20456;-73
2022/01/27 10:40:29;;;;;;;52.43;20.37;;;0.00;99.90;;;;;;4975090;28;20492;-73
2022/01/27 10:43:09;;;;;;;57.53;19.30;;;0.10;99.90;;;;;;4975307;28;20494;-74
2022/01/27 10:45:36;;;;;;;41.30;14.97;;;0.10;99.90;;;;;;4974377;28;20546;-73
2022/01/27 10:48:15;;;;;;;42.27;17.23;;;0.10;99.90;;;;;;4975438;28;20547;-73
2022/01/27 10:50:50;;;;;;;47.47;17.10;;;0.10;99.90;;;;;;4974633;28;20452;-73
2022/01/27 10:53:18;;;;;;;40.67;16.17;;;0.20;99.90;;;;;;4970266;28;20523;-73
2022/01/27 10:55:46;;;;;;;38.10;16.80;;;0.30;99.90;;;;;;4975233;28;20476;-73
2022/01/27 10:58:25;;;;;;;41.63;16.70;;;0.40;99.90;;;;;;4975364;28;20455;-73
2022/01/27 11:00:58;;;;;;;35.10;16.10;;;0.40;99.90;;;;;;4973464;28;20532;-73
2022/01/27 11:03:26;;;;;;;39.07;16.50;;;0.50;99.90;;;;;;4969928;28;20448;-74
2022/01/27 11:05:56;;;;;;;35.60;15.67;;;0.50;99.90;;;;;;4975509;28;20559;-74
2022/01/27 11:08:26;;;;;;;40.33;17.30;;;0.50;99.90;;;;;;4974723;28;20452;-74
2022/01/27 11:10:53;;;;;;;37.00;15.03;;;0.60;99.90;;;;;;4974692;28;20463;-73
2022/01/27 11:13:22;;;;;;;34.80;14.90;;;0.70;99.90;;;;;;4974802;28;20496;-74
2022/01/27 11:15:53;;;;;;;37.43;14.70;;;0.70;99.90;;;;;;5002954;23;20501;-75
2022/01/27 11:18:23;;;;;;;42.70;16.87;;;0.70;99.90;;;;;;4935757;29;20929;-75
2022/01/27 11:20:56;;;;;;;39.30;16.60;;;0.60;99.90;;;;;;4934812;29;20464;-75
2022/01/27 11:26:28;;;;;;;37.90;16.60;;;0.70;99.90;;;;;;4895323;29;20472;-75
2022/01/27 11:28:57;;;;;;;38.03;17.23;;;0.70;99.90;;;;;;4895875;29;20462;-75
2022/01/27 11:31:40;;;;;;;39.33;15.90;;;0.70;99.90;;;;;;4914349;29;20556;-75
2022/01/27 11:34:10;;;;;;;35.00;14.67;;;0.70;99.90;;;;;;4936152;29;20498;-75
2022/01/27 11:36:38;;;;;;;38.13;15.37;;;0.80;99.90;;;;;;4936550;29;20474;-75
2022/01/27 11:39:11;;;;;;;46.83;16.17;;;0.90;99.90;;;;;;4936203;29;20457;-75
2022/01/27 11:41:42;;;;;;;37.60;15.00;;;0.90;99.90;;;;;;4936113;29;20950;-76
2022/01/27 11:44:28;;;;;;;31.70;14.60;;;0.90;99.90;;;;;;4936150;29;20457;-75
2022/01/27 11:47:20;;;;;;;37.90;14.07;;;0.90;99.90;;;;;;4936242;29;20482;-76
2022/01/27 11:50:00;;;;;;;45.57;17.03;;;1.00;99.90;;;;;;4935468;29;20449;-75
2022/01/27 11:52:32;;;;;;;29.40;13.40;;;1.00;99.90;;;;;;4935622;29;20512;-75
2022/01/27 11:55:44;;;;;;;31.43;13.60;;;1.10;99.90;;;;;;4935682;29;20497;-75
2022/01/27 11:58:17;;;;;;;34.40;14.80;;;1.10;99.90;;;;;;4935719;29;20462;-75
2022/01/27 12:01:10;;;;;;;32.87;15.00;;;1.20;99.90;;;;;;4935690;29;20485;-76
2022/01/27 12:03:38;;;;;;;29.70;14.23;;;1.20;99.90;;;;;;4935868;29;20513;-75
2022/01/27 12:06:17;;;;;;;30.80;14.87;;;1.30;99.90;;;;;;4935518;29;20528;-75
2022/01/27 12:08:44;;;;;;;27.07;12.67;;;1.30;99.90;;;;;;4935450;29;20489;-75
2022/01/27 12:11:44;;;;;;;27.53;12.87;;;1.30;99.90;;;;;;4935456;29;20453;-76
2022/01/27 12:14:14;;;;;;;30.63;13.13;;;1.40;99.90;;;;;;4935429;29;20604;-75
2022/01/27 12:19:22;;;;;;;29.90;12.73;;;1.50;99.90;;;;;;4934116;29;20461;-75
2022/01/27 12:22:04;;;;;;;28.33;13.00;;;1.50;99.90;;;;;;4935299;29;20513;-75
2022/01/27 12:24:33;;;;;;;31.50;14.90;;;1.50;99.90;;;;;;4935533;29;20520;-75
2022/01/27 12:27:03;;;;;;;31.60;14.33;;;1.60;99.90;;;;;;4935105;29;20513;-74
2022/01/27 12:29:33;;;;;;;24.97;12.40;;;1.60;99.90;;;;;;4935188;29;20484;-75
2022/01/27 12:32:03;;;;;;;25.70;12.53;;;1.70;99.90;;;;;;4935132;29;20468;-74
2022/01/27 12:34:30;;;;;;;26.20;12.53;;;1.70;99.90;;;;;;4935043;29;20822;-75
2022/01/27 12:37:00;;;;;;;25.17;12.33;;;1.70;99.90;;;;;;4935127;29;20493;-75
2022/01/27 12:39:29;;;;;;;26.13;13.00;;;1.80;99.90;;;;;;4935207;29;20456;-75
2022/01/27 12:41:56;;;;;;;26.17;12.13;;;1.90;99.90;;;;;;4936096;29;20453;-74
2022/01/27 12:44:26;;;;;;;27.47;12.43;;;1.90;99.90;;;;;;4935121;29;20452;-75
2022/01/27 12:47:12;;;;;;;21.53;10.60;;;2.00;99.90;;;;;;4934977;29;20481;-74
2022/01/27 12:49:43;;;;;;;22.40;11.20;;;2.00;99.90;;;;;;4934709;29;20454;-75
2022/01/27 12:52:12;;;;;;;23.33;12.10;;;2.00;99.90;;;;;;4934908;29;20465;-75
2022/01/27 12:54:40;;;;;;;30.33;11.93;;;2.00;99.90;;;;;;4934980;29;20533;-75
2022/01/27 12:57:09;;;;;;;22.27;11.60;;;2.10;99.90;;;;;;4934378;29;20904;-75
2022/01/27 12:59:41;;;;;;;28.90;12.40;;;2.10;99.90;;;;;;4933127;29;20533;-75
2022/01/27 13:02:09;;;;;;;19.83;10.87;;;2.10;99.90;;;;;;4934633;29;20944;-75
2022/01/27 13:04:38;;;;;;;22.40;10.60;;;2.20;99.90;;;;;;4934572;29;20839;-75
2022/01/27 13:07:06;;;;;;;22.57;11.60;;;2.20;99.90;;;;;;4934659;29;20565;-75
2022/01/27 13:09:36;;;;;;;24.40;11.90;;;2.30;99.90;;;;;;4934566;29;20458;-76
2022/01/27 13:12:19;;;;;;;16.17;10.27;;;2.30;99.90;;;;;;4934619;29;20466;-76
2022/01/27 13:15:05;;;;;;;22.90;11.73;;;2.30;99.90;;;;;;4934619;29;20492;-76
2022/01/27 13:17:37;;;;;;;28.23;13.30;;;2.30;99.90;;;;;;4934530;29;20465;-76
2022/01/27 13:20:23;;;;;;;29.00;13.37;;;2.40;99.90;;;;;;4934108;29;20488;-76
2022/01/27 13:22:56;;;;;;;25.43;12.50;;;2.50;99.90;;;;;;4933456;29;20470;-76
2022/01/27 13:25:36;;;;;;;30.23;12.67;;;2.60;99.90;;;;;;4933414;29;21056;-76
2022/01/27 13:28:08;;;;;;;32.93;14.37;;;2.60;99.90;;;;;;4934205;29;21008;-76
2022/01/27 13:30:37;;;;;;;32.37;13.80;;;2.50;99.90;;;;;;4934280;29;20866;-68
2022/01/27 13:33:07;;;;;;;22.03;12.70;;;2.50;99.90;;;;;;4933746;29;21285;-67
2022/01/27 13:35:35;;;;;;;20.33;11.60;;;2.50;99.90;;;;;;4934419;29;20497;-68
2022/01/27 13:38:11;;;;;;;25.83;12.50;;;2.60;99.90;;;;;;4934104;29;20473;-67
2022/01/27 13:43:35;;;;;;;29.93;13.10;;;2.60;99.90;;;;;;4934031;29;20580;-75
2022/01/27 13:46:04;;;;;;;27.10;12.90;;;2.60;99.90;;;;;;4933964;29;20549;-76
2022/01/27 13:48:31;;;;;;;28.20;12.80;;;2.60;99.90;;;;;;4931597;29;20461;-76
2022/01/27 13:51:00;;;;;;;22.40;12.17;;;2.60;99.90;;;;;;4933067;29;20442;-76
2022/01/27 13:53:28;;;;;;;28.70;12.70;;;2.70;99.90;;;;;;4934039;29;20460;-76
2022/01/27 13:56:00;;;;;;;26.13;12.60;;;2.70;99.90;;;;;;4933726;29;20521;-76
2022/01/27 13:58:29;;;;;;;25.57;12.20;;;2.80;99.90;;;;;;4933672;29;21002;-76
2022/01/27 14:01:12;;;;;;;30.93;12.47;;;2.80;99.90;;;;;;4933812;29;20454;-76
2022/01/27 14:03:45;;;;;;;27.53;13.07;;;2.80;99.90;;;;;;4933911;29;20469;-76
2022/01/27 14:06:13;;;;;;;29.73;12.77;;;2.80;99.90;;;;;;4933800;29;20476;-76
2022/01/27 14:08:44;;;;;;;22.77;11.80;;;2.80;99.90;;;;;;4933690;29;20461;-76
2022/01/27 14:11:16;;;;;;;26.33;12.10;;;2.90;99.90;;;;;;4933857;29;20457;-76
2022/01/27 14:13:54;;;;;;;20.73;11.30;;;2.90;99.90;;;;;;4934336;29;20489;-76
2022/01/27 14:16:26;;;;;;;22.27;12.87;;;2.90;99.90;;;;;;4934008;29;20488;-76
2022/01/27 14:18:53;;;;;;;24.37;12.00;;;2.90;99.90;;;;;;4932970;29;20990;-76
2022/01/27 14:21:22;;;;;;;23.83;12.00;;;3.00;99.90;;;;;;4936635;29;20458;-75
2022/01/27 14:24:07;;;;;;;22.60;12.13;;;3.00;99.90;;;;;;4937154;29;20449;-76
2022/01/27 14:26:39;;;;;;;28.97;13.30;;;3.00;99.90;;;;;;4935648;29;21001;-75
2022/01/27 14:29:09;;;;;;;25.07;12.17;;;3.10;99.90;;;;;;4932767;29;20449;-75
2022/01/27 14:31:38;;;;;;;25.50;12.63;;;3.10;99.90;;;;;;4936759;29;20541;-75
2022/01/27 14:34:05;;;;;;;22.97;11.70;;;3.10;99.90;;;;;;4936717;29;20457;-75
2022/01/27 14:36:33;;;;;;;20.80;11.33;;;3.10;99.90;;;;;;4934734;29;20480;-75
2022/01/27 14:38:59;;;;;;;24.13;12.73;;;3.10;99.90;;;;;;4935306;29;20461;-75
2022/01/27 14:41:26;;;;;;;23.50;12.13;;;3.10;99.90;;;;;;4936406;29;20560;-75
2022/01/27 14:43:53;;;;;;;24.47;12.70;;;3.10;99.90;;;;;;4936338;29;20548;-75
2022/01/27 14:46:27;;;;;;;26.50;14.07;;;3.10;99.90;;;;;;4936578;29;21029;-75
2022/01/27 14:48:59;;;;;;;27.40;13.10;;;3.10;99.90;;;;;;4936969;29;20461;-75
2022/01/27 14:51:28;;;;;;;26.53;13.40;;;3.10;99.90;;;;;;4936840;29;20464;-75
2022/01/27 14:53:55;;;;;;;28.60;13.60;;;3.10;99.90;;;;;;4936727;29;20446;-76
2022/01/27 14:56:22;;;;;;;19.40;11.40;;;3.10;99.90;;;;;;4936586;29;20493;-76
2022/01/27 14:58:51;;;;;;;25.90;12.83;;;3.10;99.90;;;;;;4936807;29;20961;-76
2022/01/27 15:01:18;;;;;;;27.30;13.17;;;3.10;99.90;;;;;;4936842;29;20462;-74
2022/01/27 15:03:45;;;;;;;27.43;13.20;;;3.10;99.90;;;;;;4937009;29;20457;-74
2022/01/27 15:06:14;;;;;;;23.73;13.67;;;3.10;99.90;;;;;;4936675;29;20508;-74
2022/01/27 15:08:41;;;;;;;24.63;12.70;;;3.10;99.90;;;;;;4936412;29;20458;-74
2022/01/27 15:11:08;;;;;;;25.73;13.43;;;3.20;99.90;;;;;;4936726;29;20485;-75
2022/01/27 15:13:42;;;;;;;30.73;13.97;;;3.20;99.90;;;;;;4936641;29;20897;-75
2022/01/27 15:19:01;;;;;;;28.80;14.93;;;3.30;99.90;;;;;;4935746;29;20932;-74
2022/01/27 15:21:31;;;;;;;28.30;14.40;;;3.50;99.90;;;;;;4936694;29;20882;-75
2022/01/27 15:23:58;;;;;;;30.23;14.90;;;3.60;99.90;;;;;;4936268;29;20457;-74
2022/01/27 15:26:28;;;;;;;31.23;14.03;;;3.50;99.90;;;;;;4936351;29;20470;-74
2022/01/27 15:28:55;;;;;;;31.37;13.80;;;3.50;99.90;;;;;;4936193;29;20525;-75
2022/01/27 15:31:23;;;;;;;28.70;13.60;;;3.50;99.90;;;;;;4935160;29;20454;-75
2022/01/27 15:33:50;;;;;;;47.67;29.23;;;3.50;99.90;;;;;;4936200;29;20457;-75
2022/01/27 15:36:20;;;;;;;28.70;14.20;;;3.50;99.90;;;;;;4935509;29;20509;-75
2022/01/27 15:38:48;;;;;;;32.73;15.70;;;3.50;99.90;;;;;;4934414;29;20465;-74
2022/01/27 15:41:15;;;;;;;35.13;18.90;;;3.40;99.90;;;;;;4934234;29;20457;-75
2022/01/27 15:43:44;;;;;;;31.77;16.27;;;3.30;99.90;;;;;;4934834;29;20541;-74
2022/01/27 15:46:11;;;;;;;33.40;17.17;;;3.30;99.90;;;;;;4933591;29;20470;-75
2022/01/27 15:48:38;;;;;;;33.47;18.37;;;3.30;99.90;;;;;;4934339;29;20457;-75
2022/01/27 15:51:05;;;;;;;28.33;15.07;;;3.30;99.90;;;;;;4934086;29;20537;-75
2022/01/27 15:53:31;;;;;;;34.50;16.73;;;3.30;99.90;;;;;;4933882;29;20808;-75
2022/01/27 15:56:00;;;;;;;36.17;16.63;;;3.30;99.90;;;;;;4932335;29;20588;-75
2022/01/27 15:58:27;;;;;;;37.77;19.07;;;3.40;99.90;;;;;;4933488;29;20458;-74
2022/01/27 16:00:54;;;;;;;33.90;17.33;;;3.40;99.90;;;;;;4931827;29;20513;-75
2022/01/27 16:03:22;;;;;;;31.10;17.53;;;3.40;99.90;;;;;;4934547;29;20484;-75
2022/01/27 16:05:49;;;;;;;33.60;16.77;;;3.40;99.90;;;;;;4928016;29;20470;-75
2022/01/27 16:08:16;;;;;;;33.93;17.70;;;3.40;99.90;;;;;;4934230;29;20509;-65
2022/01/27 16:10:43;;;;;;;36.33;20.10;;;3.50;99.90;;;;;;4934011;29;20449;-64
2022/01/27 16:13:11;;;;;;;28.73;17.20;;;3.40;99.90;;;;;;4933396;29;20799;-68
2022/01/27 16:15:41;;;;;;;37.93;16.90;;;3.40;99.90;;;;;;4933129;29;20584;-75
2022/01/27 16:18:08;;;;;;;34.10;17.90;;;3.50;99.90;;;;;;4933953;29;20438;-75
2022/01/27 16:20:36;;;;;;;35.23;17.50;;;3.50;99.90;;;;;;4932755;29;20538;-78
2022/01/27 16:23:04;;;;;;;33.50;16.90;;;3.50;99.90;;;;;;4933847;29;20454;-75
2022/01/27 16:25:31;;;;;;;34.13;18.00;;;3.50;99.90;;;;;;4933891;29;20466;-75
2022/01/27 16:27:58;;;;;;;42.13;20.13;;;3.50;99.90;;;;;;4933760;29;20481;-75
2022/01/27 16:30:26;;;;;;;38.97;17.93;;;3.50;99.90;;;;;;4933662;29;20546;-75
2022/01/27 16:32:53;;;;;;;43.60;17.57;;;3.50;99.90;;;;;;4933916;29;20450;-75
2022/01/27 16:35:20;;;;;;;39.90;17.67;;;3.50;99.90;;;;;;4933657;29;20529;-75
2022/01/27 16:37:49;;;;;;;42.60;19.70;;;3.50;99.90;;;;;;4933944;29;20446;-75
2022/01/27 16:40:17;;;;;;;34.67;17.97;;;3.40;99.90;;;;;;4931084;29;20832;-76
2022/01/27 16:42:44;;;;;;;43.40;20.47;;;3.30;99.90;;;;;;4933817;29;20468;-75
2022/01/27 16:45:11;;;;;;;38.73;20.90;;;3.30;99.90;;;;;;4933578;29;20446;-75
2022/01/27 16:47:40;;;;;;;45.43;20.67;;;3.40;99.90;;;;;;4931794;29;21013;-74
2022/01/27 16:50:08;;;;;;;42.90;21.20;;;3.40;99.90;;;;;;4930886;29;20473;-75
2022/01/27 16:52:35;;;;;;;44.47;22.20;;;3.50;99.90;;;;;;4933515;29;20949;-75
2022/01/27 16:55:02;;;;;;;48.07;21.77;;;3.50;99.90;;;;;;4933785;29;20545;-75
2022/01/27 16:57:29;;;;;;;41.93;21.30;;;3.50;99.90;;;;;;4933885;29;21042;-76
2022/01/27 16:59:56;;;;;;;47.27;22.20;;;3.50;99.90;;;;;;4933691;29;20454;-75
2022/01/27 17:02:23;;;;;;;47.10;22.30;;;3.50;99.90;;;;;;4933985;29;20488;-77
2022/01/27 17:04:52;;;;;;;51.63;22.07;;;3.40;99.90;;;;;;4933750;29;20452;-75
2022/01/27 17:07:19;;;;;;;40.27;20.07;;;3.40;99.90;;;;;;4933334;29;20557;-75
2022/01/27 17:09:46;;;;;;;49.30;21.23;;;3.30;99.90;;;;;;4933183;29;20457;-76
2022/01/27 17:12:14;;;;;;;47.50;21.43;;;3.30;99.90;;;;;;4933380;29;20473;-75
2022/01/27 17:14:42;;;;;;;47.87;21.77;;;3.40;99.90;;;;;;4933016;29;20453;-76
2022/01/27 17:17:10;;;;;;;48.47;21.87;;;3.30;99.90;;;;;;4934339;29;21025;-75
2022/01/27 17:19:40;;;;;;;41.73;20.47;;;3.30;99.90;;;;;;4935331;29;20458;-75
2022/01/27 17:22:12;;;;;;;43.30;21.20;;;3.30;99.90;;;;;;4933938;29;20968;-75
2022/01/27 17:24:39;;;;;;;44.33;20.60;;;3.30;99.90;;;;;;4933935;29;20536;-76
2022/01/27 17:27:06;;;;;;;54.53;22.33;;;3.30;99.90;;;;;;4933631;29;20504;-75
2022/01/27 17:29:33;;;;;;;47.83;24.30;;;3.40;99.90;;;;;;4933613;29;20513;-75
2022/01/27 17:32:00;;;;;;;49.10;22.57;;;3.30;99.90;;;;;;4934072;29;20540;-75
2022/01/27 17:34:27;;;;;;;49.47;23.57;;;3.50;99.90;;;;;;4933620;29;21225;-75
2022/01/27 17:36:54;;;;;;;47.63;22.47;;;3.40;99.90;;;;;;4933767;29;20497;-76
2022/01/27 17:39:23;;;;;;;52.37;25.50;;;3.50;99.90;;;;;;4933172;29;20490;-76
2022/01/27 17:41:58;;;;;;;50.40;24.10;;;3.50;99.90;;;;;;4933524;29;20964;-75
2022/01/27 17:44:26;;;;;;;49.60;22.70;;;3.50;99.90;;;;;;4933488;29;20454;-75
2022/01/27 17:46:54;;;;;;;52.67;24.57;;;3.40;99.90;;;;;;4933468;29;20540;-75
2022/01/27 17:49:21;;;;;;;49.80;24.73;;;3.40;99.90;;;;;;4933140;29;20887;-76
2022/01/27 17:51:49;;;;;;;52.20;23.27;;;3.40;99.90;;;;;;4933594;29;20500;-75
2022/01/27 17:54:17;;;;;;;49.47;22.03;;;3.40;99.90;;;;;;4933829;29;20485;-75
2022/01/27 17:56:45;;;;;;;53.10;25.13;;;3.40;99.90;;;;;;4936441;29;20501;-75
2022/01/27 17:59:12;;;;;;;54.87;23.37;;;3.50;99.90;;;;;;4935970;29;20941;-76